sensor_id;sensor_type;location;lat;lon;timestamp;temperature;humidity
4431;DHT22;2228;48.140;11.488;2023-11-18T00:01:02;5.10;1.00
4431;DHT22;2228;48.140;11.488;2023-11-18T00:03:29;5.10;1.00
4431;DHT22;2228;48.140;11.488;2023-11-18T00:05:56;5.00;99.90
4431;DHT22;2228;48.140;11.488;2023-11-18T00:08:24;5.20;1.00
4431;DHT22;2228;48.140;11.488;2023-11-18T00:10:52;5.00;99.90
4431;DHT22;2228;48.140;11.488;2023-11-18T00:13:20;6.20;1.00
4431;DHT22;2228;48.140;11.488;2023-11-18T00:15:47;5.10;1.00
4431;DHT22;2228;48.140;11.488;2023-11-18T00:18:14;5.10;99.90
4431;DHT22;2228;48.140;11.488;2023-11-18T00:20:41;5.10;99.90
4431;DHT22;2228;48.140;11.488;2023-11-18T00:23:08;5.10;99.90
4431;DHT22;2228;48.140;11.488;2023-11-18T00:25:35;5.10;1.00
4431;DHT22;2228;48.140;11.488;2023-11-18T00:28:06;5.40;99.90
4431;DHT22;2228;48.140;11.488;2023-11-18T00:30:34;5.00;99.90
4431;DHT22;2228;48.140;11.488;2023-11-18T00:33:01;4.30;99.90
4431;DHT22;2228;48.140;11.488;2023-11-18T00:35:28;4.90;99.90
4431;DHT22;2228;48.140;11.488;2023-11-18T00:37:57;4.90;99.90
4431;DHT22;2228;48.140;11.488;2023-11-18T00:40:24;5.70;99.90
4431;DHT22;2228;48.140;11.488;2023-11-18T00:42:55;5.90;99.90
4431;DHT22;2228;48.140;11.488;2023-11-18T00:45:23;4.80;99.90
4431;DHT22;2228;48.140;11.488;2023-11-18T00:47:51;3.80;99.90
4431;DHT22;2228;48.140;11.488;2023-11-18T00:50:18;4.40;99.90
4431;DHT22;2228;48.140;11.488;2023-11-18T00:52:45;4.70;99.90
4431;DHT22;2228;48.140;11.488;2023-11-18T00:55:14;5.30;99.90
4431;DHT22;2228;48.140;11.488;2023-11-18T00:57:43;5.20;99.90
4431;DHT22;2228;48.140;11.488;2023-11-18T01:00:12;4.80;99.90
4431;DHT22;2228;48.140;11.488;2023-11-18T01:02:43;4.90;99.90
4431;DHT22;2228;48.140;11.488;2023-11-18T01:05:10;4.90;99.90
4431;DHT22;2228;48.140;11.488;2023-11-18T01:07:39;4.90;99.90
4431;DHT22;2228;48.140;11.488;2023-11-18T01:10:06;4.90;99.90
4431;DHT22;2228;48.140;11.488;2023-11-18T01:12:35;4.90;99.90
4431;DHT22;2228;48.140;11.488;2023-11-18T01:15:03;4.70;99.90
4431;DHT22;2228;48.140;11.488;2023-11-18T01:17:31;5.00;99.90
4431;DHT22;2228;48.140;11.488;2023-11-18T01:19:59;4.90;99.90
4431;DHT22;2228;48.140;11.488;2023-11-18T01:22:32;4.90;99.90
4431;DHT22;2228;48.140;11.488;2023-11-18T01:25:00;5.00;99.90
4431;DHT22;2228;48.140;11.488;2023-11-18T01:27:27;4.80;99.90
4431;DHT22;2228;48.140;11.488;2023-11-18T01:29:54;5.40;99.90
4431;DHT22;2228;48.140;11.488;2023-11-18T01:32:22;4.80;99.90
4431;DHT22;2228;48.140;11.488;2023-11-18T01:34:51;4.90;99.90
4431;DHT22;2228;48.140;11.488;2023-11-18T01:37:21;4.80;99.90
4431;DHT22;2228;48.140;11.488;2023-11-18T01:39:49;4.80;99.90
4431;DHT22;2228;48.140;11.488;2023-11-18T01:42:16;4.80;99.90
4431;DHT22;2228;48.140;11.488;2023-11-18T01:44:43;4.80;99.90
4431;DHT22;2228;48.140;11.488;2023-11-18T01:47:10;4.90;99.90
4431;DHT22;2228;48.140;11.488;2023-11-18T01:49:38;4.90;99.90
4431;DHT22;2228;48.140;11.488;2023-11-18T01:52:07;5.00;99.90
4431;DHT22;2228;48.140;11.488;2023-11-18T01:54:37;4.50;99.90
4431;DHT22;2228;48.140;11.488;2023-11-18T01:57:05;4.80;99.90
4431;DHT22;2228;48.140;11.488;2023-11-18T01:59:35;4.80;99.90
4431;DHT22;2228;48.140;11.488;2023-11-18T02:02:04;4.80;99.90
4431;DHT22;2228;48.140;11.488;2023-11-18T02:04:31;5.10;99.90
4431;DHT22;2228;48.140;11.488;2023-11-18T02:06:59;5.00;99.90
4431;DHT22;2228;48.140;11.488;2023-11-18T02:09:29;5.00;99.90
4431;DHT22;2228;48.140;11.488;2023-11-18T02:12:04;5.00;99.90
4431;DHT22;2228;48.140;11.488;2023-11-18T02:14:39;5.30;99.90
4431;DHT22;2228;48.140;11.488;2023-11-18T02:17:07;5.10;99.90
4431;DHT22;2228;48.140;11.488;2023-11-18T02:19:37;5.00;99.90
4431;DHT22;2228;48.140;11.488;2023-11-18T02:22:06;5.00;99.90
4431;DHT22;2228;48.140;11.488;2023-11-18T02:24:36;4.90;99.90
4431;DHT22;2228;48.140;11.488;2023-11-18T02:27:07;5.10;99.90
4431;DHT22;2228;48.140;11.488;2023-11-18T02:29:38;5.20;99.90
4431;DHT22;2228;48.140;11.488;2023-11-18T02:32:13;5.10;99.90
4431;DHT22;2228;48.140;11.488;2023-11-18T02:34:49;5.00;99.90
4431;DHT22;2228;48.140;11.488;2023-11-18T02:37:19;5.00;99.90
4431;DHT22;2228;48.140;11.488;2023-11-18T02:39:52;5.00;99.90
4431;DHT22;2228;48.140;11.488;2023-11-18T02:42:22;5.00;99.90
4431;DHT22;2228;48.140;11.488;2023-11-18T02:44:50;5.10;99.90
4431;DHT22;2228;48.140;11.488;2023-11-18T02:47:25;5.30;99.90
4431;DHT22;2228;48.140;11.488;2023-11-18T02:49:54;5.00;99.90
4431;DHT22;2228;48.140;11.488;2023-11-18T02:52:27;5.70;99.90
4431;DHT22;2228;48.140;11.488;2023-11-18T02:54:54;4.90;99.90
4431;DHT22;2228;48.140;11.488;2023-11-18T02:57:24;4.90;99.90
4431;DHT22;2228;48.140;11.488;2023-11-18T02:59:51;4.10;99.90
4431;DHT22;2228;48.140;11.488;2023-11-18T03:02:18;5.10;99.90
4431;DHT22;2228;48.140;11.488;2023-11-18T03:04:46;4.90;99.90
4431;DHT22;2228;48.140;11.488;2023-11-18T03:07:13;4.90;99.90
4431;DHT22;2228;48.140;11.488;2023-11-18T03:09:40;5.00;99.90
4431;DHT22;2228;48.140;11.488;2023-11-18T03:12:08;5.00;99.90
4431;DHT22;2228;48.140;11.488;2023-11-18T03:14:36;5.00;99.90
4431;DHT22;2228;48.140;11.488;2023-11-18T03:17:02;5.10;99.90
4431;DHT22;2228;48.140;11.488;2023-11-18T03:19:32;4.90;99.90
4431;DHT22;2228;48.140;11.488;2023-11-18T03:22:00;4.90;99.90
4431;DHT22;2228;48.140;11.488;2023-11-18T03:24:27;4.90;99.90
4431;DHT22;2228;48.140;11.488;2023-11-18T03:26:55;4.90;99.90
4431;DHT22;2228;48.140;11.488;2023-11-18T03:29:22;4.90;99.90
4431;DHT22;2228;48.140;11.488;2023-11-18T03:31:51;4.90;99.90
4431;DHT22;2228;48.140;11.488;2023-11-18T03:34:17;5.00;99.90
4431;DHT22;2228;48.140;11.488;2023-11-18T03:36:45;5.00;99.90
4431;DHT22;2228;48.140;11.488;2023-11-18T03:39:14;5.10;99.90
4431;DHT22;2228;48.140;11.488;2023-11-18T03:41:41;5.00;99.90
4431;DHT22;2228;48.140;11.488;2023-11-18T03:44:10;5.00;99.90
4431;DHT22;2228;48.140;11.488;2023-11-18T03:46:37;5.00;99.90
4431;DHT22;2228;48.140;11.488;2023-11-18T03:49:05;5.00;99.90
4431;DHT22;2228;48.140;11.488;2023-11-18T03:51:32;5.10;99.90
4431;DHT22;2228;48.140;11.488;2023-11-18T03:53:59;5.00;99.90
4431;DHT22;2228;48.140;11.488;2023-11-18T03:56:27;5.10;99.90
4431;DHT22;2228;48.140;11.488;2023-11-18T03:58:54;5.00;99.90
4431;DHT22;2228;48.140;11.488;2023-11-18T04:01:21;5.10;99.90
4431;DHT22;2228;48.140;11.488;2023-11-18T04:03:48;5.00;99.90
4431;DHT22;2228;48.140;11.488;2023-11-18T04:06:17;4.90;99.90
4431;DHT22;2228;48.140;11.488;2023-11-18T04:08:44;5.00;99.90
4431;DHT22;2228;48.140;11.488;2023-11-18T04:11:12;5.20;99.90
4431;DHT22;2228;48.140;11.488;2023-11-18T04:13:39;5.10;99.90
4431;DHT22;2228;48.140;11.488;2023-11-18T04:16:10;5.10;99.90
4431;DHT22;2228;48.140;11.488;2023-11-18T04:18:38;5.00;99.90
4431;DHT22;2228;48.140;11.488;2023-11-18T04:21:06;5.00;99.90
4431;DHT22;2228;48.140;11.488;2023-11-18T04:23:36;4.90;99.90
4431;DHT22;2228;48.140;11.488;2023-11-18T04:26:04;5.00;99.90
4431;DHT22;2228;48.140;11.488;2023-11-18T04:28:32;5.00;99.90
4431;DHT22;2228;48.140;11.488;2023-11-18T04:30:59;5.00;99.90
4431;DHT22;2228;48.140;11.488;2023-11-18T04:33:28;5.00;99.90
4431;DHT22;2228;48.140;11.488;2023-11-18T04:35:55;5.10;99.90
4431;DHT22;2228;48.140;11.488;2023-11-18T04:38:24;5.90;99.90
4431;DHT22;2228;48.140;11.488;2023-11-18T04:40:53;5.20;99.90
4431;DHT22;2228;48.140;11.488;2023-11-18T04:43:21;5.20;99.90
4431;DHT22;2228;48.140;11.488;2023-11-18T04:45:49;5.20;99.90
4431;DHT22;2228;48.140;11.488;2023-11-18T04:48:18;5.30;99.90
4431;DHT22;2228;48.140;11.488;2023-11-18T04:50:47;6.60;99.90
4431;DHT22;2228;48.140;11.488;2023-11-18T04:53:14;5.30;99.90
4431;DHT22;2228;48.140;11.488;2023-11-18T04:55:41;5.30;99.90
4431;DHT22;2228;48.140;11.488;2023-11-18T04:58:10;5.20;99.90
4431;DHT22;2228;48.140;11.488;2023-11-18T05:00:39;5.30;99.90
4431;DHT22;2228;48.140;11.488;2023-11-18T05:03:07;5.40;99.90
4431;DHT22;2228;48.140;11.488;2023-11-18T05:05:35;5.80;99.90
4431;DHT22;2228;48.140;11.488;2023-11-18T05:08:04;5.60;99.90
4431;DHT22;2228;48.140;11.488;2023-11-18T05:10:34;5.30;99.90
4431;DHT22;2228;48.140;11.488;2023-11-18T05:13:02;5.20;99.90
4431;DHT22;2228;48.140;11.488;2023-11-18T05:15:31;5.30;99.90
4431;DHT22;2228;48.140;11.488;2023-11-18T05:17:58;5.20;99.90
4431;DHT22;2228;48.140;11.488;2023-11-18T05:20:26;5.10;99.90
4431;DHT22;2228;48.140;11.488;2023-11-18T05:22:54;5.30;99.90
4431;DHT22;2228;48.140;11.488;2023-11-18T05:25:22;4.90;99.90
4431;DHT22;2228;48.140;11.488;2023-11-18T05:27:50;5.10;99.90
4431;DHT22;2228;48.140;11.488;2023-11-18T05:30:17;5.00;99.90
4431;DHT22;2228;48.140;11.488;2023-11-18T05:32:48;5.10;99.90
4431;DHT22;2228;48.140;11.488;2023-11-18T05:35:17;4.90;99.90
4431;DHT22;2228;48.140;11.488;2023-11-18T05:37:44;5.10;99.90
4431;DHT22;2228;48.140;11.488;2023-11-18T05:40:13;4.40;99.90
4431;DHT22;2228;48.140;11.488;2023-11-18T05:42:41;5.10;99.90
4431;DHT22;2228;48.140;11.488;2023-11-18T05:45:11;5.10;99.90
4431;DHT22;2228;48.140;11.488;2023-11-18T05:47:44;5.20;99.90
4431;DHT22;2228;48.140;11.488;2023-11-18T05:50:12;5.10;99.90
4431;DHT22;2228;48.140;11.488;2023-11-18T05:52:41;5.20;99.90
4431;DHT22;2228;48.140;11.488;2023-11-18T05:55:09;5.20;99.90
4431;DHT22;2228;48.140;11.488;2023-11-18T05:57:36;5.20;99.90
4431;DHT22;2228;48.140;11.488;2023-11-18T06:00:04;5.30;99.90
4431;DHT22;2228;48.140;11.488;2023-11-18T06:02:32;5.30;99.90
4431;DHT22;2228;48.140;11.488;2023-11-18T06:05:01;5.10;99.90
4431;DHT22;2228;48.140;11.488;2023-11-18T06:07:32;5.70;99.90
4431;DHT22;2228;48.140;11.488;2023-11-18T06:10:00;5.20;99.90
4431;DHT22;2228;48.140;11.488;2023-11-18T06:12:27;5.30;99.90
4431;DHT22;2228;48.140;11.488;2023-11-18T06:14:55;5.30;99.90
4431;DHT22;2228;48.140;11.488;2023-11-18T06:17:23;5.10;99.90
4431;DHT22;2228;48.140;11.488;2023-11-18T06:19:50;5.30;99.90
4431;DHT22;2228;48.140;11.488;2023-11-18T06:22:17;5.20;99.90
4431;DHT22;2228;48.140;11.488;2023-11-18T06:24:47;5.30;99.90
4431;DHT22;2228;48.140;11.488;2023-11-18T06:27:14;5.70;99.90
4431;DHT22;2228;48.140;11.488;2023-11-18T06:29:41;5.00;99.90
4431;DHT22;2228;48.140;11.488;2023-11-18T06:32:10;5.20;99.90
4431;DHT22;2228;48.140;11.488;2023-11-18T06:34:38;5.40;99.90
4431;DHT22;2228;48.140;11.488;2023-11-18T06:37:05;5.20;99.90
4431;DHT22;2228;48.140;11.488;2023-11-18T06:39:32;5.30;99.90
4431;DHT22;2228;48.140;11.488;2023-11-18T06:42:07;5.80;99.90
4431;DHT22;2228;48.140;11.488;2023-11-18T06:44:37;5.50;99.90
4431;DHT22;2228;48.140;11.488;2023-11-18T06:47:04;5.50;99.90
4431;DHT22;2228;48.140;11.488;2023-11-18T06:49:32;5.50;99.90
4431;DHT22;2228;48.140;11.488;2023-11-18T06:52:00;5.70;99.90
4431;DHT22;2228;48.140;11.488;2023-11-18T06:54:28;5.70;99.90
4431;DHT22;2228;48.140;11.488;2023-11-18T06:56:56;5.70;99.90
4431;DHT22;2228;48.140;11.488;2023-11-18T06:59:24;5.80;99.90
4431;DHT22;2228;48.140;11.488;2023-11-18T07:01:51;6.00;99.90
4431;DHT22;2228;48.140;11.488;2023-11-18T07:04:19;5.80;99.90
4431;DHT22;2228;48.140;11.488;2023-11-18T07:06:46;5.80;99.90
4431;DHT22;2228;48.140;11.488;2023-11-18T07:09:13;5.70;99.90
4431;DHT22;2228;48.140;11.488;2023-11-18T07:11:42;5.70;99.90
4431;DHT22;2228;48.140;11.488;2023-11-18T07:14:11;5.70;99.90
4431;DHT22;2228;48.140;11.488;2023-11-18T07:16:39;5.70;99.90
4431;DHT22;2228;48.140;11.488;2023-11-18T07:19:07;5.70;99.90
4431;DHT22;2228;48.140;11.488;2023-11-18T07:21:35;6.40;99.90
4431;DHT22;2228;48.140;11.488;2023-11-18T07:24:02;6.00;99.90
4431;DHT22;2228;48.140;11.488;2023-11-18T07:26:29;6.00;99.90
4431;DHT22;2228;48.140;11.488;2023-11-18T07:28:56;6.10;99.90
4431;DHT22;2228;48.140;11.488;2023-11-18T07:31:23;6.80;99.90
4431;DHT22;2228;48.140;11.488;2023-11-18T07:33:52;6.00;99.90
4431;DHT22;2228;48.140;11.488;2023-11-18T07:36:20;6.10;99.90
4431;DHT22;2228;48.140;11.488;2023-11-18T07:38:47;6.40;99.90
4431;DHT22;2228;48.140;11.488;2023-11-18T07:41:15;6.00;99.90
4431;DHT22;2228;48.140;11.488;2023-11-18T07:43:49;6.00;99.90
4431;DHT22;2228;48.140;11.488;2023-11-18T07:46:17;6.20;99.90
4431;DHT22;2228;48.140;11.488;2023-11-18T07:48:44;6.40;99.90
4431;DHT22;2228;48.140;11.488;2023-11-18T07:51:13;6.30;99.90
4431;DHT22;2228;48.140;11.488;2023-11-18T07:53:40;6.40;99.90
4431;DHT22;2228;48.140;11.488;2023-11-18T07:56:08;6.40;99.90
4431;DHT22;2228;48.140;11.488;2023-11-18T07:58:36;6.60;99.90
4431;DHT22;2228;48.140;11.488;2023-11-18T08:01:04;6.60;99.90
4431;DHT22;2228;48.140;11.488;2023-11-18T08:03:33;6.60;99.90
4431;DHT22;2228;48.140;11.488;2023-11-18T08:06:00;6.70;99.90
4431;DHT22;2228;48.140;11.488;2023-11-18T08:08:29;6.70;99.90
4431;DHT22;2228;48.140;11.488;2023-11-18T08:10:56;6.60;99.90
4431;DHT22;2228;48.140;11.488;2023-11-18T08:13:23;6.60;99.90
4431;DHT22;2228;48.140;11.488;2023-11-18T08:15:52;6.70;99.90
4431;DHT22;2228;48.140;11.488;2023-11-18T08:18:19;6.70;99.90
4431;DHT22;2228;48.140;11.488;2023-11-18T08:20:47;6.70;99.90
4431;DHT22;2228;48.140;11.488;2023-11-18T08:23:14;6.90;99.90
4431;DHT22;2228;48.140;11.488;2023-11-18T08:25:43;7.50;99.90
4431;DHT22;2228;48.140;11.488;2023-11-18T08:28:12;7.10;51.90
4431;DHT22;2228;48.140;11.488;2023-11-18T08:30:39;7.10;76.80
4431;DHT22;2228;48.140;11.488;2023-11-18T08:33:06;7.10;77.70
4431;DHT22;2228;48.140;11.488;2023-11-18T08:35:34;7.10;98.90
4431;DHT22;2228;48.140;11.488;2023-11-18T08:38:01;7.30;75.20
4431;DHT22;2228;48.140;11.488;2023-11-18T08:40:29;7.10;56.00
4431;DHT22;2228;48.140;11.488;2023-11-18T08:42:58;7.30;63.90
4431;DHT22;2228;48.140;11.488;2023-11-18T08:45:28;6.40;96.80
4431;DHT22;2228;48.140;11.488;2023-11-18T08:47:55;7.30;66.40
4431;DHT22;2228;48.140;11.488;2023-11-18T08:50:23;7.30;55.40
4431;DHT22;2228;48.140;11.488;2023-11-18T08:52:51;7.40;6.20
4431;DHT22;2228;48.140;11.488;2023-11-18T08:55:23;7.60;1.00
4431;DHT22;2228;48.140;11.488;2023-11-18T08:58:06;7.70;1.00
4431;DHT22;2228;48.140;11.488;2023-11-18T09:00:45;7.80;1.00
4431;DHT22;2228;48.140;11.488;2023-11-18T09:03:20;7.90;1.00
4431;DHT22;2228;48.140;11.488;2023-11-18T09:05:55;7.90;1.00
4431;DHT22;2228;48.140;11.488;2023-11-18T09:08:30;8.20;1.00
4431;DHT22;2228;48.140;11.488;2023-11-18T09:11:01;8.10;1.00
4431;DHT22;2228;48.140;11.488;2023-11-18T09:13:32;8.10;1.00
4431;DHT22;2228;48.140;11.488;2023-11-18T09:16:01;8.00;1.00
4431;DHT22;2228;48.140;11.488;2023-11-18T09:18:29;8.40;1.00
4431;DHT22;2228;48.140;11.488;2023-11-18T09:20:58;8.90;1.00
4431;DHT22;2228;48.140;11.488;2023-11-18T09:23:29;8.30;1.00
4431;DHT22;2228;48.140;11.488;2023-11-18T09:25:57;8.40;1.00
4431;DHT22;2228;48.140;11.488;2023-11-18T09:28:26;8.50;1.00
4431;DHT22;2228;48.140;11.488;2023-11-18T09:30:55;8.40;1.00
4431;DHT22;2228;48.140;11.488;2023-11-18T09:33:25;8.60;1.00
4431;DHT22;2228;48.140;11.488;2023-11-18T09:35:55;8.70;1.00
4431;DHT22;2228;48.140;11.488;2023-11-18T09:38:26;8.50;1.00
4431;DHT22;2228;48.140;11.488;2023-11-18T09:40:57;9.20;1.00
4431;DHT22;2228;48.140;11.488;2023-11-18T09:43:29;8.30;1.00
4431;DHT22;2228;48.140;11.488;2023-11-18T09:46:04;9.40;1.00
4431;DHT22;2228;48.140;11.488;2023-11-18T09:48:42;8.60;1.00
4431;DHT22;2228;48.140;11.488;2023-11-18T09:51:19;8.60;1.00
4431;DHT22;2228;48.140;11.488;2023-11-18T09:53:50;9.10;1.00
4431;DHT22;2228;48.140;11.488;2023-11-18T09:56:22;9.50;1.00
4431;DHT22;2228;48.140;11.488;2023-11-18T09:59:05;9.60;1.00
4431;DHT22;2228;48.140;11.488;2023-11-18T10:01:40;9.80;1.00
4431;DHT22;2228;48.140;11.488;2023-11-18T10:04:08;9.60;1.00
4431;DHT22;2228;48.140;11.488;2023-11-18T10:06:36;9.50;1.00
4431;DHT22;2228;48.140;11.488;2023-11-18T10:09:06;9.40;1.00
4431;DHT22;2228;48.140;11.488;2023-11-18T10:11:43;10.10;1.00
4431;DHT22;2228;48.140;11.488;2023-11-18T10:14:13;10.00;1.00
4431;DHT22;2228;48.140;11.488;2023-11-18T10:16:46;9.30;1.00
4431;DHT22;2228;48.140;11.488;2023-11-18T10:19:20;9.30;1.00
4431;DHT22;2228;48.140;11.488;2023-11-18T14:58:17;8.60;1.00
4431;DHT22;2228;48.140;11.488;2023-11-18T15:00:45;8.40;1.00
4431;DHT22;2228;48.140;11.488;2023-11-18T15:03:13;8.30;1.00
4431;DHT22;2228;48.140;11.488;2023-11-18T15:05:41;8.20;1.00
4431;DHT22;2228;48.140;11.488;2023-11-18T15:08:09;8.10;1.00
4431;DHT22;2228;48.140;11.488;2023-11-18T15:10:40;8.60;1.00
4431;DHT22;2228;48.140;11.488;2023-11-18T15:13:07;8.00;1.00
4431;DHT22;2228;48.140;11.488;2023-11-18T15:15:42;8.00;1.00
4431;DHT22;2228;48.140;11.488;2023-11-18T15:18:13;8.00;1.00
4431;DHT22;2228;48.140;11.488;2023-11-18T15:20:43;8.40;1.00
4431;DHT22;2228;48.140;11.488;2023-11-18T15:23:10;8.30;1.00
4431;DHT22;2228;48.140;11.488;2023-11-18T15:25:38;8.00;1.00
4431;DHT22;2228;48.140;11.488;2023-11-18T15:28:06;8.00;1.00
4431;DHT22;2228;48.140;11.488;2023-11-18T15:30:35;8.00;1.00
4431;DHT22;2228;48.140;11.488;2023-11-18T15:33:05;8.00;1.00
4431;DHT22;2228;48.140;11.488;2023-11-18T15:35:34;8.00;1.00
4431;DHT22;2228;48.140;11.488;2023-11-18T15:38:03;7.80;1.00
4431;DHT22;2228;48.140;11.488;2023-11-18T15:40:31;7.60;1.00
4431;DHT22;2228;48.140;11.488;2023-11-18T15:42:58;8.40;1.00
4431;DHT22;2228;48.140;11.488;2023-11-18T15:45:25;7.50;1.00
4431;DHT22;2228;48.140;11.488;2023-11-18T15:47:54;8.60;1.00
4431;DHT22;2228;48.140;11.488;2023-11-18T15:50:22;8.10;1.00
4431;DHT22;2228;48.140;11.488;2023-11-18T15:52:50;7.50;1.00
4431;DHT22;2228;48.140;11.488;2023-11-18T15:55:18;8.50;1.00
4431;DHT22;2228;48.140;11.488;2023-11-18T15:57:47;9.30;1.00
4431;DHT22;2228;48.140;11.488;2023-11-18T16:00:18;7.70;1.00
4431;DHT22;2228;48.140;11.488;2023-11-18T16:02:47;7.60;1.00
4431;DHT22;2228;48.140;11.488;2023-11-18T16:05:15;9.80;1.00
4431;DHT22;2228;48.140;11.488;2023-11-18T16:07:44;7.70;1.00
4431;DHT22;2228;48.140;11.488;2023-11-18T16:10:12;7.60;1.00
4431;DHT22;2228;48.140;11.488;2023-11-18T16:12:44;7.60;1.00
4431;DHT22;2228;48.140;11.488;2023-11-18T16:15:12;7.60;1.00
4431;DHT22;2228;48.140;11.488;2023-11-18T16:17:41;7.60;1.00
4431;DHT22;2228;48.140;11.488;2023-11-18T16:20:10;7.60;1.00
4431;DHT22;2228;48.140;11.488;2023-11-18T16:22:40;7.70;1.00
4431;DHT22;2228;48.140;11.488;2023-11-18T16:25:09;7.70;1.00
4431;DHT22;2228;48.140;11.488;2023-11-18T16:27:36;7.60;1.00
4431;DHT22;2228;48.140;11.488;2023-11-18T16:30:05;8.90;1.00
4431;DHT22;2228;48.140;11.488;2023-11-18T16:32:32;7.70;1.00
4431;DHT22;2228;48.140;11.488;2023-11-18T16:34:59;8.00;1.00
4431;DHT22;2228;48.140;11.488;2023-11-18T16:37:28;7.50;1.00
4431;DHT22;2228;48.140;11.488;2023-11-18T16:39:56;7.50;1.00
4431;DHT22;2228;48.140;11.488;2023-11-18T16:42:25;8.20;1.00
4431;DHT22;2228;48.140;11.488;2023-11-18T16:44:54;7.60;1.00
4431;DHT22;2228;48.140;11.488;2023-11-18T16:47:21;7.50;1.00
4431;DHT22;2228;48.140;11.488;2023-11-18T16:49:48;7.90;1.00
4431;DHT22;2228;48.140;11.488;2023-11-18T16:52:15;9.00;1.00
4431;DHT22;2228;48.140;11.488;2023-11-18T16:54:43;8.20;1.00
4431;DHT22;2228;48.140;11.488;2023-11-18T16:57:10;7.30;1.00
4431;DHT22;2228;48.140;11.488;2023-11-18T16:59:39;7.60;1.00
4431;DHT22;2228;48.140;11.488;2023-11-18T17:02:06;7.60;1.00
4431;DHT22;2228;48.140;11.488;2023-11-18T17:04:34;8.20;1.00
4431;DHT22;2228;48.140;11.488;2023-11-18T17:07:02;10.40;1.00
4431;DHT22;2228;48.140;11.488;2023-11-18T17:09:29;8.00;1.00
4431;DHT22;2228;48.140;11.488;2023-11-18T17:11:59;7.80;1.00
4431;DHT22;2228;48.140;11.488;2023-11-18T17:14:27;9.40;1.00
4431;DHT22;2228;48.140;11.488;2023-11-18T17:16:56;7.60;1.00
4431;DHT22;2228;48.140;11.488;2023-11-18T17:19:23;7.90;1.00
4431;DHT22;2228;48.140;11.488;2023-11-18T17:21:50;8.10;1.00
4431;DHT22;2228;48.140;11.488;2023-11-18T17:24:19;5.60;1.00
4431;DHT22;2228;48.140;11.488;2023-11-18T17:26:47;7.10;1.00
4431;DHT22;2228;48.140;11.488;2023-11-18T17:29:15;8.50;1.00
4431;DHT22;2228;48.140;11.488;2023-11-18T17:31:42;7.00;1.00
4431;DHT22;2228;48.140;11.488;2023-11-18T17:34:12;7.20;1.00
4431;DHT22;2228;48.140;11.488;2023-11-18T17:36:39;7.30;1.00
4431;DHT22;2228;48.140;11.488;2023-11-18T17:39:06;7.40;1.00
4431;DHT22;2228;48.140;11.488;2023-11-18T17:41:37;7.50;1.00
4431;DHT22;2228;48.140;11.488;2023-11-18T17:44:04;7.60;1.00
4431;DHT22;2228;48.140;11.488;2023-11-18T17:46:31;7.60;1.00
4431;DHT22;2228;48.140;11.488;2023-11-18T17:48:57;7.70;1.00
4431;DHT22;2228;48.140;11.488;2023-11-18T17:51:26;8.90;1.00
4431;DHT22;2228;48.140;11.488;2023-11-18T17:53:56;9.70;1.00
4431;DHT22;2228;48.140;11.488;2023-11-18T17:56:23;7.70;1.00
4431;DHT22;2228;48.140;11.488;2023-11-18T17:58:50;7.80;1.00
4431;DHT22;2228;48.140;11.488;2023-11-18T18:01:18;8.30;1.00
4431;DHT22;2228;48.140;11.488;2023-11-18T18:03:45;7.50;1.00
4431;DHT22;2228;48.140;11.488;2023-11-18T18:06:12;7.40;1.00
4431;DHT22;2228;48.140;11.488;2023-11-18T18:08:41;7.30;1.00
4431;DHT22;2228;48.140;11.488;2023-11-18T18:11:08;7.60;1.00
4431;DHT22;2228;48.140;11.488;2023-11-18T18:13:35;7.50;1.00
4431;DHT22;2228;48.140;11.488;2023-11-18T18:16:02;7.50;1.00
4431;DHT22;2228;48.140;11.488;2023-11-18T18:18:30;7.60;1.00
4431;DHT22;2228;48.140;11.488;2023-11-18T18:20:57;9.40;1.00
4431;DHT22;2228;48.140;11.488;2023-11-18T18:23:24;7.20;1.00
4431;DHT22;2228;48.140;11.488;2023-11-18T18:25:52;6.70;43.30
4431;DHT22;2228;48.140;11.488;2023-11-18T18:28:19;8.00;65.30
4431;DHT22;2228;48.140;11.488;2023-11-18T18:30:46;6.90;32.70
4431;DHT22;2228;48.140;11.488;2023-11-18T18:33:15;6.90;29.90
4431;DHT22;2228;48.140;11.488;2023-11-18T18:35:43;6.80;61.10
4431;DHT22;2228;48.140;11.488;2023-11-18T18:38:12;6.80;99.90
4431;DHT22;2228;48.140;11.488;2023-11-18T18:40:40;7.40;92.10
4431;DHT22;2228;48.140;11.488;2023-11-18T18:43:08;6.70;94.20
4431;DHT22;2228;48.140;11.488;2023-11-18T18:45:36;9.30;64.00
4431;DHT22;2228;48.140;11.488;2023-11-18T18:48:04;7.40;99.90
4431;DHT22;2228;48.140;11.488;2023-11-18T18:50:31;6.50;92.50
4431;DHT22;2228;48.140;11.488;2023-11-18T18:53:00;6.40;99.90
4431;DHT22;2228;48.140;11.488;2023-11-18T18:55:32;6.30;99.90
4431;DHT22;2228;48.140;11.488;2023-11-18T18:57:59;6.50;99.90
4431;DHT22;2228;48.140;11.488;2023-11-18T19:00:28;9.50;99.90
4431;DHT22;2228;48.140;11.488;2023-11-18T19:02:55;7.60;99.90
4431;DHT22;2228;48.140;11.488;2023-11-18T19:05:22;6.90;99.90
4431;DHT22;2228;48.140;11.488;2023-11-18T19:07:50;5.90;99.90
4431;DHT22;2228;48.140;11.488;2023-11-18T19:10:21;5.80;99.90
4431;DHT22;2228;48.140;11.488;2023-11-18T19:12:48;6.80;99.90
4431;DHT22;2228;48.140;11.488;2023-11-18T19:15:18;7.80;99.90
4431;DHT22;2228;48.140;11.488;2023-11-18T19:17:52;4.80;99.90
4431;DHT22;2228;48.140;11.488;2023-11-18T19:20:19;5.60;99.90
4431;DHT22;2228;48.140;11.488;2023-11-18T19:22:47;5.50;99.90
4431;DHT22;2228;48.140;11.488;2023-11-18T19:25:14;6.30;99.90
4431;DHT22;2228;48.140;11.488;2023-11-18T19:27:43;5.50;99.90
4431;DHT22;2228;48.140;11.488;2023-11-18T19:30:11;5.40;99.90
4431;DHT22;2228;48.140;11.488;2023-11-18T19:32:39;6.70;99.90
4431;DHT22;2228;48.140;11.488;2023-11-18T19:35:08;8.60;99.90
4431;DHT22;2228;48.140;11.488;2023-11-18T19:37:38;5.50;99.90
4431;DHT22;2228;48.140;11.488;2023-11-18T19:40:06;5.70;99.90
4431;DHT22;2228;48.140;11.488;2023-11-18T19:42:36;5.90;99.90
4431;DHT22;2228;48.140;11.488;2023-11-18T19:45:04;6.60;99.90
4431;DHT22;2228;48.140;11.488;2023-11-18T19:47:33;5.70;99.90
4431;DHT22;2228;48.140;11.488;2023-11-18T19:50:01;6.60;99.90
4431;DHT22;2228;48.140;11.488;2023-11-18T19:52:30;6.00;99.90
4431;DHT22;2228;48.140;11.488;2023-11-18T19:54:58;5.50;99.90
4431;DHT22;2228;48.140;11.488;2023-11-18T19:57:25;5.90;99.90
4431;DHT22;2228;48.140;11.488;2023-11-18T19:59:52;6.80;99.90
4431;DHT22;2228;48.140;11.488;2023-11-18T20:02:19;6.00;99.90
4431;DHT22;2228;48.140;11.488;2023-11-18T20:04:47;5.40;99.90
4431;DHT22;2228;48.140;11.488;2023-11-18T20:07:14;6.80;99.90
4431;DHT22;2228;48.140;11.488;2023-11-18T20:09:42;5.50;99.90
4431;DHT22;2228;48.140;11.488;2023-11-18T20:12:12;6.00;99.90
4431;DHT22;2228;48.140;11.488;2023-11-18T20:14:40;5.00;99.90
4431;DHT22;2228;48.140;11.488;2023-11-18T20:17:07;5.00;99.90
4431;DHT22;2228;48.140;11.488;2023-11-18T20:19:34;5.00;99.90
4431;DHT22;2228;48.140;11.488;2023-11-18T20:22:04;7.50;99.90
4431;DHT22;2228;48.140;11.488;2023-11-18T20:24:31;6.70;99.90
4431;DHT22;2228;48.140;11.488;2023-11-18T20:27:01;7.10;99.90
4431;DHT22;2228;48.140;11.488;2023-11-18T20:29:28;4.20;99.90
4431;DHT22;2228;48.140;11.488;2023-11-18T20:31:56;6.20;99.90
4431;DHT22;2228;48.140;11.488;2023-11-18T20:34:23;5.10;99.90
4431;DHT22;2228;48.140;11.488;2023-11-18T20:36:50;5.00;99.90
4431;DHT22;2228;48.140;11.488;2023-11-18T20:39:17;5.00;1.00
4431;DHT22;2228;48.140;11.488;2023-11-18T20:41:44;4.90;1.00
4431;DHT22;2228;48.140;11.488;2023-11-18T20:44:14;6.40;1.00
4431;DHT22;2228;48.140;11.488;2023-11-18T20:46:41;4.90;1.00
4431;DHT22;2228;48.140;11.488;2023-11-18T20:49:10;8.10;1.00
4431;DHT22;2228;48.140;11.488;2023-11-18T20:51:38;4.90;1.00